sensor_id;sensor_type;location;lat;lon;timestamp;P1;durP1;ratioP1;P2;durP2;ratioP2
75667;SDS011;64266;48.798;44.756;2023-07-13T00:00:26;5.13;;;2.00;;
75667;SDS011;64266;48.798;44.756;2023-07-13T00:05:29;4.32;;;1.98;;
75667;SDS011;64266;48.798;44.756;2023-07-13T00:10:32;4.43;;;1.90;;
75667;SDS011;64266;48.798;44.756;2023-07-13T00:15:35;4.75;;;1.92;;
75667;SDS011;64266;48.798;44.756;2023-07-13T00:20:40;4.40;;;1.90;;
75667;SDS011;64266;48.798;44.756;2023-07-13T00:25:44;3.03;;;1.40;;
75667;SDS011;64266;48.798;44.756;2023-07-13T00:30:47;4.22;;;1.77;;
75667;SDS011;64266;48.798;44.756;2023-07-13T00:35:51;3.28;;;1.45;;
75667;SDS011;64266;48.798;44.756;2023-07-13T00:40:53;3.65;;;1.60;;
75667;SDS011;64266;48.798;44.756;2023-07-13T00:51:03;3.63;;;1.50;;
75667;SDS011;64266;48.798;44.756;2023-07-13T00:56:06;3.53;;;1.75;;
75667;SDS011;64266;48.798;44.756;2023-07-13T01:01:12;2.78;;;1.27;;
75667;SDS011;64266;48.798;44.756;2023-07-13T01:06:15;3.38;;;1.40;;
75667;SDS011;64266;48.798;44.756;2023-07-13T01:11:21;2.78;;;1.35;;
75667;SDS011;64266;48.798;44.756;2023-07-13T01:16:25;3.30;;;1.45;;
75667;SDS011;64266;48.798;44.756;2023-07-13T01:21:32;3.85;;;1.60;;
75667;SDS011;64266;48.798;44.756;2023-07-13T01:26:37;4.57;;;1.50;;
75667;SDS011;64266;48.798;44.756;2023-07-13T01:31:41;3.15;;;1.67;;
75667;SDS011;64266;48.798;44.756;2023-07-13T01:41:49;5.75;;;1.27;;
75667;SDS011;64266;48.798;44.756;2023-07-13T01:46:54;2.83;;;1.20;;
75667;SDS011;64266;48.798;44.756;2023-07-13T01:51:58;5.13;;;1.60;;
75667;SDS011;64266;48.798;44.756;2023-07-13T01:57:02;3.17;;;1.40;;
75667;SDS011;64266;48.798;44.756;2023-07-13T02:02:06;3.10;;;1.30;;
75667;SDS011;64266;48.798;44.756;2023-07-13T02:07:08;3.70;;;1.30;;
75667;SDS011;64266;48.798;44.756;2023-07-13T02:12:11;4.47;;;1.20;;
75667;SDS011;64266;48.798;44.756;2023-07-13T02:17:15;3.15;;;1.30;;
75667;SDS011;64266;48.798;44.756;2023-07-13T02:22:18;3.63;;;1.23;;
75667;SDS011;64266;48.798;44.756;2023-07-13T02:27:22;4.15;;;1.58;;
75667;SDS011;64266;48.798;44.756;2023-07-13T02:32:25;7.57;;;2.22;;
75667;SDS011;64266;48.798;44.756;2023-07-13T02:37:28;11.00;;;2.70;;
75667;SDS011;64266;48.798;44.756;2023-07-13T02:42:31;6.68;;;2.10;;
75667;SDS011;64266;48.798;44.756;2023-07-13T02:47:35;6.10;;;2.47;;
75667;SDS011;64266;48.798;44.756;2023-07-13T02:52:38;10.57;;;2.58;;
75667;SDS011;64266;48.798;44.756;2023-07-13T02:57:41;7.43;;;2.83;;
75667;SDS011;64266;48.798;44.756;2023-07-13T03:02:44;6.95;;;2.75;;
75667;SDS011;64266;48.798;44.756;2023-07-13T03:07:47;6.80;;;2.78;;
75667;SDS011;64266;48.798;44.756;2023-07-13T03:12:51;5.72;;;2.40;;
75667;SDS011;64266;48.798;44.756;2023-07-13T03:17:58;5.07;;;2.03;;
75667;SDS011;64266;48.798;44.756;2023-07-13T03:23:02;4.50;;;2.03;;
75667;SDS011;64266;48.798;44.756;2023-07-13T03:28:06;4.30;;;2.13;;
75667;SDS011;64266;48.798;44.756;2023-07-13T03:33:09;12.10;;;6.53;;
75667;SDS011;64266;48.798;44.756;2023-07-13T03:38:13;4.60;;;1.70;;
75667;SDS011;64266;48.798;44.756;2023-07-13T03:43:16;8.07;;;1.70;;
75667;SDS011;64266;48.798;44.756;2023-07-13T03:48:19;4.70;;;1.67;;
75667;SDS011;64266;48.798;44.756;2023-07-13T03:53:23;6.25;;;1.58;;
75667;SDS011;64266;48.798;44.756;2023-07-13T04:04:05;3.90;;;1.27;;
75667;SDS011;64266;48.798;44.756;2023-07-13T04:09:09;5.38;;;2.47;;
75667;SDS011;64266;48.798;44.756;2023-07-13T04:14:11;5.18;;;1.73;;
75667;SDS011;64266;48.798;44.756;2023-07-13T04:19:15;4.55;;;1.70;;
75667;SDS011;64266;48.798;44.756;2023-07-13T04:24:17;6.75;;;1.85;;
75667;SDS011;64266;48.798;44.756;2023-07-13T04:29:22;5.68;;;1.52;;
75667;SDS011;64266;48.798;44.756;2023-07-13T04:34:24;3.83;;;1.20;;
75667;SDS011;64266;48.798;44.756;2023-07-13T04:39:28;4.63;;;1.55;;
75667;SDS011;64266;48.798;44.756;2023-07-13T04:44:30;5.35;;;1.58;;
75667;SDS011;64266;48.798;44.756;2023-07-13T04:49:33;6.03;;;1.30;;
75667;SDS011;64266;48.798;44.756;2023-07-13T04:54:37;6.80;;;1.88;;
75667;SDS011;64266;48.798;44.756;2023-07-13T04:59:42;2.85;;;1.10;;
75667;SDS011;64266;48.798;44.756;2023-07-13T05:04:48;7.85;;;1.98;;
75667;SDS011;64266;48.798;44.756;2023-07-13T05:09:51;7.43;;;1.63;;
75667;SDS011;64266;48.798;44.756;2023-07-13T05:14:55;3.20;;;1.20;;
75667;SDS011;64266;48.798;44.756;2023-07-13T05:19:59;3.65;;;1.17;;
75667;SDS011;64266;48.798;44.756;2023-07-13T05:25:05;3.00;;;1.13;;
75667;SDS011;64266;48.798;44.756;2023-07-13T05:30:13;5.90;;;1.50;;
75667;SDS011;64266;48.798;44.756;2023-07-13T05:35:17;3.72;;;1.10;;
75667;SDS011;64266;48.798;44.756;2023-07-13T05:40:27;5.00;;;1.30;;
75667;SDS011;64266;48.798;44.756;2023-07-13T05:45:32;3.72;;;1.30;;
75667;SDS011;64266;48.798;44.756;2023-07-13T05:50:35;4.82;;;1.30;;
75667;SDS011;64266;48.798;44.756;2023-07-13T05:55:42;4.18;;;1.70;;
75667;SDS011;64266;48.798;44.756;2023-07-13T06:00:47;4.32;;;1.50;;
75667;SDS011;64266;48.798;44.756;2023-07-13T06:05:50;4.82;;;1.58;;
75667;SDS011;64266;48.798;44.756;2023-07-13T06:10:54;5.97;;;1.40;;
75667;SDS011;64266;48.798;44.756;2023-07-13T06:15:57;5.22;;;1.02;;
75667;SDS011;64266;48.798;44.756;2023-07-13T06:21:15;9.00;;;1.65;;
75667;SDS011;64266;48.798;44.756;2023-07-13T06:26:21;3.72;;;1.23;;
75667;SDS011;64266;48.798;44.756;2023-07-13T06:31:26;13.70;;;4.72;;
75667;SDS011;64266;48.798;44.756;2023-07-13T06:36:29;6.53;;;1.58;;
75667;SDS011;64266;48.798;44.756;2023-07-13T06:46:37;4.93;;;1.70;;
75667;SDS011;64266;48.798;44.756;2023-07-13T06:51:42;4.72;;;1.38;;
75667;SDS011;64266;48.798;44.756;2023-07-13T06:56:47;4.13;;;1.08;;
75667;SDS011;64266;48.798;44.756;2023-07-13T07:01:49;4.25;;;1.48;;
75667;SDS011;64266;48.798;44.756;2023-07-13T07:06:52;3.83;;;1.30;;
75667;SDS011;64266;48.798;44.756;2023-07-13T07:12:00;6.13;;;1.20;;
75667;SDS011;64266;48.798;44.756;2023-07-13T07:17:06;3.88;;;1.10;;
75667;SDS011;64266;48.798;44.756;2023-07-13T07:22:11;3.55;;;1.08;;
75667;SDS011;64266;48.798;44.756;2023-07-13T07:27:14;2.92;;;1.15;;
75667;SDS011;64266;48.798;44.756;2023-07-13T07:32:21;4.50;;;1.05;;
75667;SDS011;64266;48.798;44.756;2023-07-13T07:37:27;2.50;;;1.08;;
75667;SDS011;64266;48.798;44.756;2023-07-13T07:42:39;4.10;;;1.20;;
75667;SDS011;64266;48.798;44.756;2023-07-13T07:47:42;5.18;;;1.30;;
75667;SDS011;64266;48.798;44.756;2023-07-13T07:52:45;3.70;;;1.05;;
75667;SDS011;64266;48.798;44.756;2023-07-13T07:57:47;5.57;;;1.00;;
75667;SDS011;64266;48.798;44.756;2023-07-13T08:02:53;10.23;;;1.00;;
75667;SDS011;64266;48.798;44.756;2023-07-13T08:07:58;4.80;;;0.93;;
75667;SDS011;64266;48.798;44.756;2023-07-13T08:13:01;6.30;;;2.10;;
75667;SDS011;64266;48.798;44.756;2023-07-13T08:18:08;4.03;;;0.80;;
75667;SDS011;64266;48.798;44.756;2023-07-13T08:23:13;2.55;;;0.90;;
75667;SDS011;64266;48.798;44.756;2023-07-13T08:28:20;8.75;;;1.05;;
75667;SDS011;64266;48.798;44.756;2023-07-13T08:33:24;1.88;;;0.68;;
75667;SDS011;64266;48.798;44.756;2023-07-13T08:38:27;2.50;;;0.70;;
75667;SDS011;64266;48.798;44.756;2023-07-13T08:43:34;7.75;;;1.45;;
75667;SDS011;64266;48.798;44.756;2023-07-13T08:49:03;6.50;;;0.90;;
75667;SDS011;64266;48.798;44.756;2023-07-13T08:54:16;6.15;;;0.75;;
75667;SDS011;64266;48.798;44.756;2023-07-13T08:59:27;6.07;;;0.90;;
75667;SDS011;64266;48.798;44.756;2023-07-13T09:04:42;9.98;;;1.27;;
75667;SDS011;64266;48.798;44.756;2023-07-13T09:10:07;5.13;;;0.90;;
75667;SDS011;64266;48.798;44.756;2023-07-13T09:15:40;3.45;;;0.93;;
75667;SDS011;64266;48.798;44.756;2023-07-13T09:20:55;4.68;;;0.90;;
75667;SDS011;64266;48.798;44.756;2023-07-13T09:26:03;5.38;;;0.82;;
75667;SDS011;64266;48.798;44.756;2023-07-13T09:31:14;1.73;;;0.60;;
75667;SDS011;64266;48.798;44.756;2023-07-13T09:36:29;4.47;;;0.60;;
75667;SDS011;64266;48.798;44.756;2023-07-13T09:46:54;5.03;;;0.90;;
75667;SDS011;64266;48.798;44.756;2023-07-13T09:52:02;4.07;;;0.63;;
75667;SDS011;64266;48.798;44.756;2023-07-13T09:57:15;3.85;;;0.70;;
75667;SDS011;64266;48.798;44.756;2023-07-13T10:07:30;3.65;;;1.50;;
75667;SDS011;64266;48.798;44.756;2023-07-13T10:12:35;3.65;;;0.80;;
75667;SDS011;64266;48.798;44.756;2023-07-13T10:17:42;5.35;;;0.60;;
75667;SDS011;64266;48.798;44.756;2023-07-13T10:33:36;3.08;;;0.50;;
75667;SDS011;64266;48.798;44.756;2023-07-13T10:38:39;8.10;;;0.77;;
75667;SDS011;64266;48.798;44.756;2023-07-13T10:43:49;3.50;;;0.57;;
75667;SDS011;64266;48.798;44.756;2023-07-13T10:48:57;6.40;;;1.10;;
75667;SDS011;64266;48.798;44.756;2023-07-13T10:54:45;3.33;;;0.77;;
75667;SDS011;64266;48.798;44.756;2023-07-13T10:59:40;3.42;;;1.60;;
75667;SDS011;64266;48.798;44.756;2023-07-13T11:04:47;1.55;;;0.57;;
75667;SDS011;64266;48.798;44.756;2023-07-13T11:09:54;4.95;;;0.70;;
75667;SDS011;64266;48.798;44.756;2023-07-13T11:15:01;2.75;;;0.70;;
75667;SDS011;64266;48.798;44.756;2023-07-13T11:31:16;7.13;;;2.88;;
75667;SDS011;64266;48.798;44.756;2023-07-13T11:41:17;3.22;;;0.77;;
75667;SDS011;64266;48.798;44.756;2023-07-13T11:46:27;2.88;;;0.70;;
75667;SDS011;64266;48.798;44.756;2023-07-13T11:51:32;4.13;;;0.80;;
75667;SDS011;64266;48.798;44.756;2023-07-13T12:02:33;1.33;;;0.60;;
75667;SDS011;64266;48.798;44.756;2023-07-13T12:07:41;4.45;;;0.60;;
75667;SDS011;64266;48.798;44.756;2023-07-13T12:12:52;3.83;;;0.77;;
75667;SDS011;64266;48.798;44.756;2023-07-13T12:18:01;5.40;;;0.80;;
75667;SDS011;64266;48.798;44.756;2023-07-13T12:23:15;18.77;;;1.63;;
75667;SDS011;64266;48.798;44.756;2023-07-13T12:28:34;5.10;;;0.80;;
75667;SDS011;64266;48.798;44.756;2023-07-13T12:38:45;2.38;;;0.77;;
75667;SDS011;64266;48.798;44.756;2023-07-13T12:43:50;2.55;;;0.70;;
75667;SDS011;64266;48.798;44.756;2023-07-13T12:48:53;4.35;;;0.80;;
75667;SDS011;64266;48.798;44.756;2023-07-13T12:54:20;6.85;;;0.90;;
75667;SDS011;64266;48.798;44.756;2023-07-13T12:59:25;5.15;;;1.98;;
75667;SDS011;64266;48.798;44.756;2023-07-13T13:04:33;2.95;;;0.90;;
75667;SDS011;64266;48.798;44.756;2023-07-13T13:09:36;3.53;;;0.82;;
75667;SDS011;64266;48.798;44.756;2023-07-13T13:14:41;2.13;;;0.82;;
75667;SDS011;64266;48.798;44.756;2023-07-13T13:19:44;2.63;;;0.98;;
75667;SDS011;64266;48.798;44.756;2023-07-13T13:24:48;3.78;;;0.90;;
75667;SDS011;64266;48.798;44.756;2023-07-13T13:29:51;7.43;;;3.25;;
75667;SDS011;64266;48.798;44.756;2023-07-13T13:34:55;6.68;;;1.00;;
75667;SDS011;64266;48.798;44.756;2023-07-13T13:39:58;4.57;;;1.00;;
75667;SDS011;64266;48.798;44.756;2023-07-13T13:45:12;3.40;;;0.95;;
75667;SDS011;64266;48.798;44.756;2023-07-13T13:50:16;3.25;;;1.00;;
75667;SDS011;64266;48.798;44.756;2023-07-13T13:55:23;5.13;;;0.98;;
75667;SDS011;64266;48.798;44.756;2023-07-13T14:00:27;5.20;;;1.70;;
75667;SDS011;64266;48.798;44.756;2023-07-13T14:05:29;3.67;;;0.82;;
75667;SDS011;64266;48.798;44.756;2023-07-13T14:10:33;3.53;;;1.00;;
75667;SDS011;64266;48.798;44.756;2023-07-13T14:15:35;3.22;;;0.80;;
75667;SDS011;64266;48.798;44.756;2023-07-13T14:20:40;2.60;;;0.80;;
75667;SDS011;64266;48.798;44.756;2023-07-13T14:25:44;2.05;;;0.80;;
75667;SDS011;64266;48.798;44.756;2023-07-13T14:30:50;3.40;;;1.00;;
75667;SDS011;64266;48.798;44.756;2023-07-13T14:35:57;2.05;;;0.90;;
75667;SDS011;64266;48.798;44.756;2023-07-13T14:41:00;2.53;;;0.90;;
75667;SDS011;64266;48.798;44.756;2023-07-13T14:46:02;6.68;;;1.95;;
75667;SDS011;64266;48.798;44.756;2023-07-13T14:51:07;2.58;;;1.13;;
75667;SDS011;64266;48.798;44.756;2023-07-13T14:56:14;6.18;;;1.23;;
75667;SDS011;64266;48.798;44.756;2023-07-13T15:01:17;4.03;;;1.33;;
75667;SDS011;64266;48.798;44.756;2023-07-13T15:06:19;3.45;;;0.80;;
75667;SDS011;64266;48.798;44.756;2023-07-13T15:11:23;4.20;;;1.00;;
75667;SDS011;64266;48.798;44.756;2023-07-13T15:16:26;3.53;;;1.20;;
75667;SDS011;64266;48.798;44.756;2023-07-13T15:21:30;2.80;;;1.00;;
75667;SDS011;64266;48.798;44.756;2023-07-13T15:26:36;4.57;;;1.35;;
75667;SDS011;64266;48.798;44.756;2023-07-13T15:31:41;5.22;;;1.20;;
75667;SDS011;64266;48.798;44.756;2023-07-13T15:36:44;4.07;;;1.08;;
75667;SDS011;64266;48.798;44.756;2023-07-13T15:41:47;3.45;;;1.15;;
75667;SDS011;64266;48.798;44.756;2023-07-13T15:46:50;3.25;;;1.27;;
75667;SDS011;64266;48.798;44.756;2023-07-13T15:51:53;3.25;;;0.98;;
75667;SDS011;64266;48.798;44.756;2023-07-13T15:56:59;6.05;;;1.00;;
75667;SDS011;64266;48.798;44.756;2023-07-13T16:02:22;5.05;;;1.10;;
75667;SDS011;64266;48.798;44.756;2023-07-13T16:07:24;2.97;;;1.08;;
75667;SDS011;64266;48.798;44.756;2023-07-13T16:12:27;6.05;;;1.48;;
75667;SDS011;64266;48.798;44.756;2023-07-13T16:17:30;7.43;;;2.00;;
75667;SDS011;64266;48.798;44.756;2023-07-13T16:22:33;5.18;;;2.10;;
75667;SDS011;64266;48.798;44.756;2023-07-13T16:27:36;35.10;;;2.70;;
75667;SDS011;64266;48.798;44.756;2023-07-13T16:32:39;5.80;;;1.45;;
75667;SDS011;64266;48.798;44.756;2023-07-13T16:37:42;6.78;;;1.55;;
75667;SDS011;64266;48.798;44.756;2023-07-13T16:43:05;4.35;;;1.42;;
75667;SDS011;64266;48.798;44.756;2023-07-13T16:48:15;5.47;;;1.45;;
75667;SDS011;64266;48.798;44.756;2023-07-13T16:53:22;4.38;;;1.27;;
75667;SDS011;64266;48.798;44.756;2023-07-13T16:58:31;4.70;;;1.38;;
75667;SDS011;64266;48.798;44.756;2023-07-13T17:03:35;5.38;;;1.98;;
75667;SDS011;64266;48.798;44.756;2023-07-13T17:08:38;4.80;;;2.15;;
75667;SDS011;64266;48.798;44.756;2023-07-13T17:13:41;7.97;;;2.05;;
75667;SDS011;64266;48.798;44.756;2023-07-13T17:18:47;4.88;;;2.00;;
75667;SDS011;64266;48.798;44.756;2023-07-13T17:23:50;8.20;;;2.30;;
75667;SDS011;64266;48.798;44.756;2023-07-13T17:28:55;13.60;;;2.78;;
75667;SDS011;64266;48.798;44.756;2023-07-13T17:33:57;16.48;;;3.25;;
75667;SDS011;64266;48.798;44.756;2023-07-13T17:39:00;15.70;;;4.70;;
75667;SDS011;64266;48.798;44.756;2023-07-13T17:44:06;12.63;;;5.32;;
75667;SDS011;64266;48.798;44.756;2023-07-13T17:54:24;14.40;;;4.85;;
75667;SDS011;64266;48.798;44.756;2023-07-13T17:59:29;10.63;;;4.22;;
75667;SDS011;64266;48.798;44.756;2023-07-13T18:04:32;11.30;;;4.07;;
75667;SDS011;64266;48.798;44.756;2023-07-13T18:09:35;10.45;;;3.78;;
75667;SDS011;64266;48.798;44.756;2023-07-13T18:14:39;9.48;;;3.65;;
75667;SDS011;64266;48.798;44.756;2023-07-13T18:19:43;10.27;;;3.70;;
75667;SDS011;64266;48.798;44.756;2023-07-13T18:24:48;11.02;;;3.65;;
75667;SDS011;64266;48.798;44.756;2023-07-13T18:29:52;10.65;;;3.28;;
75667;SDS011;64266;48.798;44.756;2023-07-13T18:35:26;9.07;;;3.22;;
75667;SDS011;64266;48.798;44.756;2023-07-13T18:40:31;10.50;;;2.90;;
75667;SDS011;64266;48.798;44.756;2023-07-13T18:45:35;11.13;;;3.38;;
75667;SDS011;64266;48.798;44.756;2023-07-13T18:50:40;11.88;;;3.40;;
75667;SDS011;64266;48.798;44.756;2023-07-13T18:55:46;12.40;;;2.83;;
75667;SDS011;64266;48.798;44.756;2023-07-13T19:00:51;9.05;;;4.15;;
75667;SDS011;64266;48.798;44.756;2023-07-13T19:06:01;9.93;;;3.00;;
75667;SDS011;64266;48.798;44.756;2023-07-13T19:11:24;10.23;;;3.03;;
75667;SDS011;64266;48.798;44.756;2023-07-13T19:16:28;11.35;;;3.22;;
75667;SDS011;64266;48.798;44.756;2023-07-13T19:21:33;15.52;;;3.60;;
75667;SDS011;64266;48.798;44.756;2023-07-13T19:26:40;6.75;;;3.20;;
75667;SDS011;64266;48.798;44.756;2023-07-13T19:31:44;13.25;;;3.45;;
75667;SDS011;64266;48.798;44.756;2023-07-13T19:36:48;14.45;;;5.88;;
75667;SDS011;64266;48.798;44.756;2023-07-13T19:41:59;9.55;;;4.25;;
75667;SDS011;64266;48.798;44.756;2023-07-13T19:47:13;11.88;;;4.28;;
75667;SDS011;64266;48.798;44.756;2023-07-13T19:52:22;9.60;;;3.78;;
75667;SDS011;64266;48.798;44.756;2023-07-13T19:57:32;7.90;;;3.20;;
75667;SDS011;64266;48.798;44.756;2023-07-13T20:02:34;11.90;;;3.80;;
75667;SDS011;64266;48.798;44.756;2023-07-13T20:07:37;9.45;;;3.60;;
75667;SDS011;64266;48.798;44.756;2023-07-13T20:12:42;11.15;;;3.70;;
75667;SDS011;64266;48.798;44.756;2023-07-13T20:17:46;9.80;;;3.50;;
75667;SDS011;64266;48.798;44.756;2023-07-13T20:22:52;9.75;;;3.25;;
75667;SDS011;64266;48.798;44.756;2023-07-13T20:27:56;9.10;;;3.38;;
75667;SDS011;64266;48.798;44.756;2023-07-13T20:33:05;12.50;;;3.50;;
75667;SDS011;64266;48.798;44.756;2023-07-13T20:38:15;10.63;;;3.33;;
75667;SDS011;64266;48.798;44.756;2023-07-13T20:43:19;10.60;;;3.42;;
75667;SDS011;64266;48.798;44.756;2023-07-13T20:48:36;12.82;;;3.13;;
75667;SDS011;64266;48.798;44.756;2023-07-13T20:53:43;12.50;;;3.60;;
75667;SDS011;64266;48.798;44.756;2023-07-13T20:58:48;7.45;;;3.65;;
75667;SDS011;64266;48.798;44.756;2023-07-13T21:03:51;8.52;;;3.05;;
75667;SDS011;64266;48.798;44.756;2023-07-13T21:08:58;11.27;;;3.33;;
75667;SDS011;64266;48.798;44.756;2023-07-13T21:14:00;10.65;;;3.28;;
75667;SDS011;64266;48.798;44.756;2023-07-13T21:19:04;7.30;;;3.05;;
75667;SDS011;64266;48.798;44.756;2023-07-13T21:24:08;7.53;;;2.90;;
75667;SDS011;64266;48.798;44.756;2023-07-13T21:29:13;10.65;;;3.17;;
75667;SDS011;64266;48.798;44.756;2023-07-13T21:34:17;12.40;;;3.35;;
75667;SDS011;64266;48.798;44.756;2023-07-13T21:39:23;10.43;;;3.03;;
75667;SDS011;64266;48.798;44.756;2023-07-13T21:44:28;7.10;;;3.13;;
75667;SDS011;64266;48.798;44.756;2023-07-13T21:49:32;9.48;;;3.53;;
75667;SDS011;64266;48.798;44.756;2023-07-13T21:54:36;9.57;;;2.97;;
75667;SDS011;64266;48.798;44.756;2023-07-13T21:59:41;7.47;;;2.65;;
75667;SDS011;64266;48.798;44.756;2023-07-13T22:04:45;10.88;;;2.90;;
75667;SDS011;64266;48.798;44.756;2023-07-13T22:09:52;8.07;;;3.38;;
75667;SDS011;64266;48.798;44.756;2023-07-13T22:14:55;6.70;;;3.28;;
75667;SDS011;64266;48.798;44.756;2023-07-13T22:19:57;8.23;;;2.80;;
75667;SDS011;64266;48.798;44.756;2023-07-13T22:25:00;8.52;;;2.97;;
75667;SDS011;64266;48.798;44.756;2023-07-13T22:30:04;6.63;;;2.88;;
75667;SDS011;64266;48.798;44.756;2023-07-13T22:35:09;7.90;;;3.00;;
75667;SDS011;64266;48.798;44.756;2023-07-13T22:40:15;7.68;;;3.10;;
75667;SDS011;64266;48.798;44.756;2023-07-13T22:45:20;7.65;;;2.58;;
75667;SDS011;64266;48.798;44.756;2023-07-13T22:50:23;9.40;;;2.47;;
75667;SDS011;64266;48.798;44.756;2023-07-13T22:55:26;5.18;;;2.22;;
75667;SDS011;64266;48.798;44.756;2023-07-13T23:00:30;5.38;;;2.35;;
75667;SDS011;64266;48.798;44.756;2023-07-13T23:05:34;6.15;;;1.90;;
75667;SDS011;64266;48.798;44.756;2023-07-13T23:10:43;7.82;;;2.50;;
75667;SDS011;64266;48.798;44.756;2023-07-13T23:15:49;5.13;;;2.20;;
75667;SDS011;64266;48.798;44.756;2023-07-13T23:20:53;5.72;;;2.38;;
75667;SDS011;64266;48.798;44.756;2023-07-13T23:25:56;9.60;;;2.33;;
75667;SDS011;64266;48.798;44.756;2023-07-13T23:30:58;8.30;;;2.72;;
75667;SDS011;64266;48.798;44.756;2023-07-13T23:36:02;6.65;;;2.10;;
75667;SDS011;64266;48.798;44.756;2023-07-13T23:41:13;4.68;;;2.22;;
75667;SDS011;64266;48.798;44.756;2023-07-13T23:46:37;6.88;;;2.90;;
75667;SDS011;64266;48.798;44.756;2023-07-13T23:51:44;6.55;;;2.45;;
75667;SDS011;64266;48.798;44.756;2023-07-13T23:56:49;7.15;;;2.38;;
